createdAt,value
2023-04-25T00:00:08.327Z,99431.53
2023-04-25T00:02:43.728Z,99437.69
2023-04-25T00:05:13.308Z,99426.50
2023-04-25T00:07:43.130Z,99434.41
2023-04-25T00:10:13.082Z,99425.34
2023-04-25T00:12:42.514Z,99424.38
2023-04-25T00:15:11.877Z,99427.88
2023-04-25T00:17:40.676Z,99429.63
2023-04-25T00:20:12.452Z,99438.03
2023-04-25T00:22:41.049Z,99433.13
2023-04-25T00:25:10.069Z,99438.44
2023-04-25T00:27:40.139Z,99449.59
2023-04-25T00:30:10.026Z,99438.44
2023-04-25T00:32:39.352Z,99442.72
2023-04-25T00:35:08.081Z,99441.53
2023-04-25T00:37:38.701Z,99444.78
2023-04-25T00:40:09.306Z,99444.84
2023-04-25T00:42:39.211Z,99448.34
2023-04-25T00:45:09.483Z,99448.53
2023-04-25T00:47:38.553Z,99442.41
2023-04-25T00:50:08.339Z,99451.16
2023-04-25T00:52:38.760Z,99442.03
2023-04-25T00:55:07.940Z,99446.25
2023-04-25T00:57:36.914Z,99438.34
2023-04-25T01:00:07.597Z,99444.06
2023-04-25T01:02:37.334Z,99437.84
2023-04-25T01:05:06.342Z,99444.03
2023-04-25T01:07:36.167Z,99437.66
2023-04-25T01:10:07.272Z,99434.25
2023-04-25T01:12:36.220Z,99430.66
2023-04-25T01:15:04.872Z,99425.19
2023-04-25T01:17:34.554Z,99428.34
2023-04-25T01:20:05.770Z,99425.06
2023-04-25T01:22:36.801Z,99431.91
2023-04-25T01:25:09.785Z,99436.56
2023-04-25T01:27:39.485Z,99435.16
2023-04-25T01:30:09.291Z,99429.28
2023-04-25T01:32:40.312Z,99427.72
2023-04-25T01:35:11.249Z,99424.25
2023-04-25T01:37:41.590Z,99429.59
2023-04-25T01:40:11.808Z,99422.38
2023-04-25T01:42:42.980Z,99423.91
2023-04-25T01:45:13.156Z,99417.16
2023-04-25T01:47:44.059Z,99419.69
2023-04-25T01:50:13.369Z,99421.16
2023-04-25T01:52:44.106Z,99422.69
2023-04-25T01:55:13.915Z,99423.81
2023-04-25T01:57:51.717Z,99427.53
2023-04-25T02:00:24.126Z,99419.53
2023-04-25T02:02:54.649Z,99421.63
2023-04-25T02:05:30.090Z,99418.41
2023-04-25T02:08:00.214Z,99419.59
2023-04-25T02:10:31.092Z,99415.50
2023-04-25T02:13:20.512Z,99414.41
2023-04-25T02:16:08.527Z,99415.41
2023-04-25T02:18:43.100Z,99411.03
2023-04-25T02:21:12.604Z,99410.94
2023-04-25T02:23:43.096Z,99402.94
2023-04-25T02:26:12.362Z,99408.47
2023-04-25T02:28:41.580Z,99403.22
2023-04-25T02:31:10.038Z,99403.06
2023-04-25T02:33:38.490Z,99394.41
2023-04-25T02:36:09.353Z,99394.31
2023-04-25T02:38:37.824Z,99396.84
2023-04-25T02:41:08.358Z,99399.50
2023-04-25T02:43:36.966Z,99402.72
2023-04-25T02:46:05.931Z,99407.88
2023-04-25T02:48:34.817Z,99403.19
2023-04-25T02:51:03.299Z,99406.50
2023-04-25T02:53:32.188Z,99407.31
2023-04-25T02:56:00.561Z,99412.16
2023-04-25T02:58:30.749Z,99415.63
2023-04-25T03:00:59.505Z,99414.75
2023-04-25T03:03:28.120Z,99418.13
2023-04-25T03:05:56.678Z,99417.84
2023-04-25T03:08:33.554Z,99411.50
2023-04-25T03:11:03.573Z,99410.31
2023-04-25T03:13:33.333Z,99415.16
2023-04-25T03:16:02.635Z,99414.84
2023-04-25T03:18:31.979Z,99405.88
2023-04-25T03:21:00.621Z,99407.59
2023-04-25T03:23:29.142Z,99402.75
2023-04-25T03:25:57.628Z,99394.66
2023-04-25T03:28:26.463Z,99386.22
2023-04-25T03:30:56.679Z,99390.66
2023-04-25T03:33:26.416Z,99389.59
2023-04-25T03:35:55.409Z,99382.06
2023-04-25T03:38:24.184Z,99392.88
2023-04-25T03:40:54.499Z,99401.34
2023-04-25T03:43:28.129Z,99402.66
2023-04-25T03:46:04.862Z,99409.50
2023-04-25T03:48:33.342Z,99395.44
2023-04-25T03:51:02.094Z,99405.25
2023-04-25T03:53:31.835Z,99395.69
2023-04-25T03:56:21.889Z,99399.97
2023-04-25T03:58:58.661Z,99397.13
2023-04-25T04:01:30.322Z,99396.09
2023-04-25T04:03:59.881Z,99392.88
2023-04-25T04:06:29.752Z,99395.19
2023-04-25T04:09:12.386Z,99401.88
2023-04-25T04:11:43.554Z,99395.81
2023-04-25T04:14:15.492Z,99394.69
2023-04-25T04:16:48.611Z,99400.00
2023-04-25T04:19:17.472Z,99391.63
2023-04-25T04:21:52.577Z,99394.00
2023-04-25T04:24:21.655Z,99391.16
2023-04-25T04:26:56.140Z,99389.44
2023-04-25T04:29:32.638Z,99392.84
2023-04-25T04:32:11.778Z,99393.06
2023-04-25T04:34:42.443Z,99391.16
2023-04-25T04:37:14.270Z,99392.50
2023-04-25T04:39:43.531Z,99387.06
2023-04-25T04:42:33.724Z,99381.84
2023-04-25T04:45:25.418Z,99383.53
2023-04-25T04:48:33.744Z,99386.78
2023-04-25T04:51:40.500Z,99399.41
2023-04-25T04:54:28.096Z,99392.53
2023-04-25T04:57:15.190Z,99397.84
2023-04-25T04:59:56.942Z,99394.22
2023-04-25T05:02:45.853Z,99387.97
2023-04-25T05:05:33.580Z,99390.28
2023-04-25T05:08:20.816Z,99394.38
2023-04-25T05:11:15.920Z,99385.75
2023-04-25T05:13:56.393Z,99383.72
2023-04-25T05:16:48.097Z,99395.06
2023-04-25T05:19:26.828Z,99380.41
2023-04-25T05:22:15.389Z,99382.06
2023-04-25T05:25:01.582Z,99379.50
2023-04-25T05:27:53.547Z,99380.72
2023-04-25T05:30:32.041Z,99376.81
2023-04-25T05:33:08.912Z,99386.72
2023-04-25T05:35:38.213Z,99387.28
2023-04-25T05:38:08.041Z,99384.50
2023-04-25T05:40:55.885Z,99392.66
2023-04-25T05:44:00.411Z,99388.09
2023-04-25T05:46:46.401Z,99389.28
2023-04-25T05:49:32.837Z,99382.97
2023-04-25T05:52:21.795Z,99382.09
2023-04-25T05:54:59.910Z,99374.97
2023-04-25T05:57:29.504Z,99366.03
2023-04-25T05:59:58.740Z,99370.94
2023-04-25T06:02:42.409Z,99365.63
2023-04-25T06:05:13.621Z,99367.28
2023-04-25T06:07:43.663Z,99366.09
2023-04-25T06:10:13.500Z,99356.50
2023-04-25T06:12:42.128Z,99358.38
2023-04-25T06:15:24.207Z,99350.19
2023-04-25T06:17:57.047Z,99352.53
2023-04-25T06:20:25.877Z,99348.50
2023-04-25T06:22:57.112Z,99349.19
2023-04-25T06:25:36.210Z,99341.44
2023-04-25T06:28:05.356Z,99343.72
2023-04-25T06:30:33.910Z,99341.59
2023-04-25T06:33:09.719Z,99333.22
2023-04-25T06:35:39.087Z,99332.50
2023-04-25T06:38:10.076Z,99332.47
2023-04-25T06:40:42.040Z,99336.34
2023-04-25T06:43:11.855Z,99330.03
2023-04-25T06:46:05.317Z,99331.53
2023-04-25T06:48:37.882Z,99339.09
2023-04-25T06:51:07.230Z,99332.88
2023-04-25T06:53:37.020Z,99332.22
2023-04-25T06:56:10.083Z,99330.09
2023-04-25T06:58:54.725Z,99334.97
2023-04-25T07:01:46.602Z,99331.72
2023-04-25T07:04:27.939Z,99329.47
2023-04-25T07:07:02.114Z,99341.00
2023-04-25T07:09:44.726Z,99338.19
2023-04-25T07:12:14.695Z,99330.28
2023-04-25T07:14:43.131Z,99328.28
2023-04-25T07:17:12.387Z,99327.66
2023-04-25T07:19:41.429Z,99336.06
2023-04-25T07:22:11.145Z,99324.16
2023-04-25T07:24:42.584Z,99319.53
2023-04-25T07:27:18.728Z,99325.34
2023-04-25T07:29:54.120Z,99321.28
2023-04-25T07:32:25.106Z,99313.66
2023-04-25T07:34:53.798Z,99317.28
2023-04-25T07:37:22.320Z,99312.88
2023-04-25T07:40:02.538Z,99315.47
2023-04-25T07:42:34.839Z,99318.91
2023-04-25T07:45:04.661Z,99319.16
2023-04-25T07:47:33.271Z,99327.75
2023-04-25T07:50:03.034Z,99321.94
2023-04-25T07:52:33.421Z,99315.59
2023-04-25T07:55:10.675Z,99320.06
2023-04-25T07:58:06.927Z,99319.25
2023-04-25T08:00:36.033Z,99319.34
2023-04-25T08:03:24.807Z,99329.00
2023-04-25T08:05:54.144Z,99321.06
2023-04-25T08:08:23.095Z,99318.78
2023-04-25T08:10:51.606Z,99322.81
2023-04-25T08:13:21.923Z,99327.53
2023-04-25T08:15:50.983Z,99321.81
2023-04-25T08:18:19.868Z,99314.84
2023-04-25T08:20:50.337Z,99311.44
2023-04-25T08:23:21.504Z,99309.38
2023-04-25T08:25:55.282Z,99314.63
2023-04-25T08:28:29.604Z,99298.72
2023-04-25T08:31:00.910Z,99302.38
2023-04-25T08:33:36.319Z,99313.78
2023-04-25T08:36:39.679Z,99312.03
2023-04-25T08:39:27.580Z,99310.91
2023-04-25T08:42:15.303Z,99301.88
2023-04-25T08:44:45.996Z,99298.38
2023-04-25T08:47:15.215Z,99298.44
2023-04-25T08:49:51.320Z,99289.88
2023-04-25T08:52:24.296Z,99289.09
2023-04-25T08:55:00.357Z,99287.25
2023-04-25T08:57:34.024Z,99281.00
2023-04-25T09:00:06.807Z,99275.59
2023-04-25T09:02:38.589Z,99290.81
2023-04-25T09:05:12.113Z,99275.97
2023-04-25T09:07:43.666Z,99279.00
2023-04-25T09:10:15.524Z,99279.94
2023-04-25T09:12:44.259Z,99265.78
2023-04-25T09:23:28.686Z,99273.72
2023-04-25T09:25:57.571Z,99263.25
2023-04-25T09:28:28.523Z,99271.84
2023-04-25T09:31:01.417Z,99264.19
2023-04-25T09:33:42.311Z,99262.50
2023-04-25T09:36:14.996Z,99251.34
2023-04-25T09:39:04.704Z,99248.47
2023-04-25T09:41:40.128Z,99251.81
2023-04-25T09:44:08.984Z,99243.47
2023-04-25T09:46:41.036Z,99244.31
2023-04-25T09:49:17.266Z,99255.66
2023-04-25T09:52:19.282Z,99252.41
2023-04-25T09:55:17.013Z,99247.97
2023-04-25T09:57:49.550Z,99245.31
2023-04-25T10:00:22.402Z,99235.13
2023-04-25T10:02:53.680Z,99245.88
2023-04-25T10:05:41.651Z,99245.25
2023-04-25T10:08:10.414Z,99236.13
2023-04-25T10:10:39.636Z,99234.59
2023-04-25T10:13:09.285Z,99234.25
2023-04-25T10:15:40.221Z,99244.63
2023-04-25T10:18:11.312Z,99228.91
2023-04-25T10:20:40.453Z,99228.69
2023-04-25T10:23:14.191Z,99231.88
2023-04-25T10:25:42.900Z,99221.78
2023-04-25T10:28:11.592Z,99227.53
2023-04-25T10:30:40.262Z,99212.09
2023-04-25T10:33:19.048Z,99211.78
2023-04-25T10:35:47.815Z,99207.84
2023-04-25T10:38:17.131Z,99201.78
2023-04-25T10:41:05.628Z,99205.22
2023-04-25T10:43:39.392Z,99205.03
2023-04-25T10:46:21.958Z,99199.59
2023-04-25T10:48:52.754Z,99206.16
2023-04-25T10:51:24.231Z,99203.13
2023-04-25T10:54:10.337Z,99190.22
2023-04-25T10:56:43.096Z,99190.31
2023-04-25T10:59:13.458Z,99192.31
2023-04-25T11:01:45.424Z,99191.78
2023-04-25T11:04:26.045Z,99189.81
2023-04-25T11:07:06.813Z,99192.31
2023-04-25T11:09:37.107Z,99182.00
2023-04-25T11:12:07.231Z,99179.25
2023-04-25T11:14:35.820Z,99176.00
2023-04-25T11:17:04.392Z,99167.66
2023-04-25T11:19:34.944Z,99164.97
2023-04-25T11:22:04.612Z,99153.06
2023-04-25T11:24:35.387Z,99163.22
2023-04-25T11:27:04.914Z,99154.19
2023-04-25T11:29:34.814Z,99151.50
2023-04-25T11:32:04.044Z,99148.56
2023-04-25T11:34:34.498Z,99149.22
2023-04-25T11:37:04.433Z,99139.81
2023-04-25T11:39:33.134Z,99138.59
2023-04-25T11:42:02.912Z,99145.25
2023-04-25T11:44:33.937Z,99136.38
2023-04-25T11:47:02.466Z,99131.41
2023-04-25T11:49:34.592Z,99129.84
2023-04-25T11:52:03.078Z,99125.34
2023-04-25T11:54:31.507Z,99118.66
2023-04-25T11:57:02.927Z,99116.19
2023-04-25T11:59:31.556Z,99108.28
2023-04-25T12:02:02.718Z,99111.06
2023-04-25T12:04:34.748Z,99104.94
2023-04-25T12:07:03.580Z,99110.34
2023-04-25T12:09:33.341Z,99108.03
2023-04-25T12:12:05.942Z,99108.22
2023-04-25T12:14:36.164Z,99101.06
2023-04-25T12:17:08.995Z,99092.59
2023-04-25T12:19:41.826Z,99090.06
2023-04-25T12:22:22.392Z,99091.66
2023-04-25T12:24:50.943Z,99086.78
2023-04-25T12:27:20.420Z,99086.44
2023-04-25T12:29:56.289Z,99078.53
2023-04-25T12:32:24.965Z,99075.91
2023-04-25T12:34:54.839Z,99060.25
2023-04-25T12:37:23.583Z,99061.00
2023-04-25T12:39:52.703Z,99048.69
2023-04-25T12:42:21.383Z,99054.78
2023-04-25T12:44:49.939Z,99045.50
2023-04-25T12:47:18.416Z,99038.72
2023-04-25T12:49:46.744Z,99042.16
2023-04-25T12:52:16.740Z,99044.69
2023-04-25T12:54:45.192Z,99036.13
2023-04-25T12:57:13.988Z,99037.19
2023-04-25T12:59:42.463Z,99039.97
2023-04-25T13:02:13.700Z,99032.63
2023-04-25T13:04:45.270Z,99025.88
2023-04-25T13:07:27.088Z,99015.69
2023-04-25T13:09:56.211Z,99016.06
2023-04-25T13:12:24.923Z,99020.69
2023-04-25T13:14:53.638Z,99013.78
2023-04-25T13:17:23.427Z,99013.13
2023-04-25T13:19:51.983Z,99011.13
2023-04-25T13:22:21.726Z,98998.28
2023-04-25T13:24:50.193Z,99006.31
2023-04-25T13:27:18.822Z,99000.44
2023-04-25T13:29:47.346Z,98994.63
2023-04-25T13:32:19.191Z,98996.03
2023-04-25T13:34:47.790Z,98999.88
2023-04-25T13:37:16.727Z,98980.75
2023-04-25T13:39:47.018Z,98982.44
2023-04-25T13:42:15.893Z,98974.78
2023-04-25T13:44:44.261Z,98972.19
2023-04-25T13:47:14.388Z,98980.53
2023-04-25T13:49:42.884Z,98972.69
2023-04-25T13:52:11.511Z,98969.88
2023-04-25T13:54:40.101Z,98970.25
2023-04-25T13:57:09.965Z,98982.84
2023-04-25T13:59:38.409Z,98976.84
2023-04-25T14:02:08.841Z,98967.91
2023-04-25T14:04:37.752Z,98959.91
2023-04-25T14:07:06.770Z,98958.69
2023-04-25T14:09:35.413Z,98958.22
2023-04-25T14:12:04.278Z,98953.53
2023-04-25T14:14:34.133Z,98948.13
2023-04-25T14:17:05.167Z,98947.59
2023-04-25T14:19:36.288Z,98946.03
2023-04-25T14:22:04.819Z,98936.16
2023-04-25T14:24:33.292Z,98933.03
2023-04-25T14:27:01.990Z,98928.81
2023-04-25T14:29:30.548Z,98933.66
2023-04-25T14:32:00.611Z,98927.38
2023-04-25T14:34:29.255Z,98924.94
2023-04-25T14:36:57.793Z,98927.50
2023-04-25T14:39:26.291Z,98915.44
2023-04-25T14:41:54.970Z,98921.59
2023-04-25T14:44:23.485Z,98908.97
2023-04-25T14:46:52.924Z,98896.75
2023-04-25T14:49:27.514Z,98898.44
2023-04-25T14:51:56.218Z,98891.25
2023-04-25T14:54:25.782Z,98886.72
2023-04-25T14:56:54.582Z,98880.44
2023-04-25T14:59:23.197Z,98873.66
2023-04-25T15:01:53.006Z,98871.38
2023-04-25T15:04:21.805Z,98860.50
2023-04-25T15:06:52.260Z,98860.78
2023-04-25T15:09:20.865Z,98861.63
2023-04-25T15:11:49.395Z,98859.75
2023-04-25T15:14:18.461Z,98848.69
2023-04-25T15:16:47.181Z,98843.78
2023-04-25T15:19:15.791Z,98839.72
2023-04-25T15:21:44.498Z,98839.63
2023-04-25T15:24:16.161Z,98835.94
2023-04-25T15:26:44.687Z,98828.44
2023-04-25T15:29:13.294Z,98823.91
2023-04-25T15:31:44.146Z,98826.56
2023-04-25T15:34:12.681Z,98823.03
2023-04-25T15:39:09.728Z,98815.91
2023-04-25T15:41:42.377Z,98813.00
2023-04-25T15:44:11.286Z,98814.28
2023-04-25T15:46:40.381Z,98808.44
2023-04-25T15:49:08.951Z,98806.00
2023-04-25T15:51:37.359Z,98808.31
2023-04-25T15:54:06.097Z,98806.16
2023-04-25T15:56:34.695Z,98800.31
2023-04-25T15:59:04.728Z,98800.31
2023-04-25T16:01:35.396Z,98791.00
2023-04-25T16:04:04.239Z,98795.44
2023-04-25T16:06:33.212Z,98798.22
2023-04-25T16:09:02.459Z,98787.03
2023-04-25T16:11:31.121Z,98795.84
2023-04-25T16:13:59.556Z,98789.41
2023-04-25T16:16:29.963Z,98787.78
2023-04-25T16:18:58.883Z,98782.78
2023-04-25T16:21:27.476Z,98784.34
2023-04-25T16:23:56.484Z,98780.44
2023-04-25T16:26:25.035Z,98777.84
2023-04-25T16:28:56.259Z,98785.19
2023-04-25T16:31:26.633Z,98774.09
2023-04-25T16:33:56.945Z,98770.81
2023-04-25T16:36:28.266Z,98770.91
2023-04-25T16:38:56.915Z,98774.69
2023-04-25T16:41:27.732Z,98761.41
2023-04-25T16:43:56.246Z,98770.06
2023-04-25T16:46:24.956Z,98770.78
2023-04-25T16:48:53.515Z,98766.22
2023-04-25T16:51:23.521Z,98772.59
2023-04-25T16:53:52.097Z,98768.13
2023-04-25T16:56:20.496Z,98761.66
2023-04-25T16:58:49.673Z,98764.81
2023-04-25T17:01:20.207Z,98763.44
2023-04-25T17:03:49.197Z,98760.91
2023-04-25T17:06:18.322Z,98754.22
2023-04-25T17:08:48.316Z,98760.72
2023-04-25T17:11:17.169Z,98758.88
2023-04-25T17:13:46.289Z,98759.66
2023-04-25T17:16:16.801Z,98751.84
2023-04-25T17:18:46.233Z,98751.19
2023-04-25T17:21:14.764Z,98754.06
2023-04-25T17:23:45.746Z,98740.72
2023-04-25T17:26:16.571Z,98746.44
2023-04-25T17:28:49.577Z,98746.53
2023-04-25T17:31:18.785Z,98744.66
2023-04-25T17:33:47.666Z,98739.75
2023-04-25T17:36:16.236Z,98737.72
2023-04-25T17:38:44.657Z,98742.38
2023-04-25T17:41:14.389Z,98743.81
2023-04-25T17:43:44.334Z,98736.06
2023-04-25T17:46:13.333Z,98741.31
2023-04-25T17:48:41.865Z,98750.66
2023-04-25T17:51:10.656Z,98757.00
2023-04-25T17:53:39.155Z,98744.63
2023-04-25T17:56:23.352Z,98762.66
2023-04-25T17:58:56.409Z,98762.50
2023-04-25T18:01:24.932Z,98761.28
2023-04-25T18:03:53.752Z,98769.34
2023-04-25T18:06:22.563Z,98768.34
2023-04-25T18:08:51.453Z,98767.94
2023-04-25T18:11:20.333Z,98767.13
2023-04-25T18:13:49.260Z,98763.47
2023-04-25T18:16:19.123Z,98769.13
2023-04-25T18:18:53.638Z,98761.53
2023-04-25T18:21:22.851Z,98755.47
2023-04-25T18:23:51.406Z,98764.44
2023-04-25T18:26:20.392Z,98764.59
2023-04-25T18:28:49.132Z,98767.63
2023-04-25T18:31:24.185Z,98761.16
2023-04-25T18:33:53.161Z,98764.75
2023-04-25T18:36:21.670Z,98757.84
2023-04-25T18:38:56.471Z,98745.69
2023-04-25T18:41:50.970Z,98749.44
2023-04-25T18:44:15.821Z,98753.16
2023-04-25T18:46:47.248Z,98752.97
2023-04-25T18:49:16.057Z,98745.22
2023-04-25T18:51:44.960Z,98748.09
2023-04-25T18:54:13.933Z,98742.44
2023-04-25T18:56:42.603Z,98747.03
2023-04-25T18:59:11.367Z,98748.94
2023-04-25T19:01:39.964Z,98743.63
2023-04-25T19:04:10.087Z,98741.47
2023-04-25T19:06:39.732Z,98734.53
2023-04-25T19:09:10.214Z,98729.50
2023-04-25T19:11:38.973Z,98728.03
2023-04-25T19:14:08.499Z,98728.88
2023-04-25T19:16:39.153Z,98725.47
2023-04-25T19:19:13.391Z,98726.38
2023-04-25T19:21:42.568Z,98723.00
2023-04-25T19:24:11.575Z,98716.09
2023-04-25T19:26:40.861Z,98720.75
2023-04-25T19:29:12.290Z,98708.81
2023-04-25T19:31:41.304Z,98711.97
2023-04-25T19:34:11.453Z,98713.91
2023-04-25T19:36:44.176Z,98720.31
2023-04-25T19:39:13.162Z,98712.22
2023-04-25T19:41:41.686Z,98702.03
2023-04-25T19:44:10.955Z,98700.66
2023-04-25T19:46:39.705Z,98708.88
2023-04-25T19:49:08.413Z,98696.81
2023-04-25T19:51:38.335Z,98693.50
2023-04-25T19:54:07.152Z,98694.84
2023-04-25T19:56:35.606Z,98689.16
2023-04-25T19:59:04.365Z,98678.00
2023-04-25T20:01:33.517Z,98678.06
2023-04-25T20:04:02.089Z,98678.44
2023-04-25T20:06:30.645Z,98667.03
2023-04-25T20:09:00.591Z,98675.56
2023-04-25T20:11:29.304Z,98674.22
2023-04-25T20:14:00.593Z,98675.44
2023-04-25T20:16:29.156Z,98660.81
2023-04-25T20:18:57.723Z,98664.06
2023-04-25T20:21:27.972Z,98654.91
2023-04-25T20:23:56.573Z,98650.66
2023-04-25T20:26:27.930Z,98645.44
2023-04-25T20:28:57.283Z,98637.19
2023-04-25T20:31:25.942Z,98641.63
2023-04-25T20:33:54.467Z,98637.41
2023-04-25T20:36:22.951Z,98634.81
2023-04-25T20:38:51.700Z,98636.94
2023-04-25T20:41:20.258Z,98629.28
2023-04-25T20:43:53.372Z,98628.59
2023-04-25T20:46:22.427Z,98622.91
2023-04-25T20:48:52.895Z,98618.63
2023-04-25T20:51:21.923Z,98612.75
2023-04-25T20:53:52.356Z,98610.94
2023-04-25T20:56:20.916Z,98609.50
2023-04-25T20:58:51.013Z,98606.97
2023-04-25T21:01:22.436Z,98595.38
2023-04-25T21:03:51.905Z,98608.34
2023-04-25T21:06:20.676Z,98600.84
2023-04-25T21:08:49.437Z,98594.91
2023-04-25T21:11:19.699Z,98587.25
2023-04-25T21:13:48.144Z,98573.50
2023-04-25T21:16:18.043Z,98574.41
2023-04-25T21:18:46.606Z,98569.75
2023-04-25T21:21:15.079Z,98577.06
2023-04-25T21:23:43.788Z,98559.66
2023-04-25T21:26:12.468Z,98563.19
2023-04-25T21:28:41.289Z,98547.75
2023-04-25T21:31:09.763Z,98551.34
2023-04-25T21:33:39.976Z,98545.16
2023-04-25T21:36:09.074Z,98552.09
2023-04-25T21:38:37.675Z,98543.53
2023-04-25T21:41:09.582Z,98537.53
2023-04-25T21:43:38.129Z,98545.47
2023-04-25T21:46:22.335Z,98543.06
2023-04-25T21:48:54.434Z,98545.72
2023-04-25T21:51:23.286Z,98547.03
2023-04-25T21:53:51.750Z,98538.44
2023-04-25T21:56:21.154Z,98532.69
2023-04-25T21:58:49.962Z,98533.59
2023-04-25T22:01:19.375Z,98528.53
2023-04-25T22:03:48.087Z,98515.44
2023-04-25T22:06:18.117Z,98533.13
2023-04-25T22:08:46.693Z,98533.31
2023-04-25T22:11:15.299Z,98523.09
2023-04-25T22:13:45.175Z,98525.06
2023-04-25T22:16:14.356Z,98530.53
2023-04-25T22:18:43.441Z,98520.97
2023-04-25T22:21:12.147Z,98511.78
2023-04-25T22:23:41.934Z,98514.25
2023-04-25T22:26:10.978Z,98514.50
2023-04-25T22:28:40.637Z,98511.13
2023-04-25T22:31:09.432Z,98513.00
2023-04-25T22:33:38.044Z,98508.81
2023-04-25T22:36:06.951Z,98501.38
2023-04-25T22:38:35.287Z,98501.44
2023-04-25T22:41:05.479Z,98499.31
2023-04-25T22:43:33.800Z,98508.25
2023-04-25T22:46:02.501Z,98496.41
2023-04-25T22:48:30.939Z,98492.38
2023-04-25T22:51:06.302Z,98488.16
2023-04-25T22:53:37.471Z,98485.72
2023-04-25T22:56:08.163Z,98471.97
2023-04-25T22:58:37.289Z,98478.28
2023-04-25T23:01:08.636Z,98469.69
2023-04-25T23:03:37.637Z,98468.91
2023-04-25T23:06:06.273Z,98463.81
2023-04-25T23:08:35.472Z,98464.94
2023-04-25T23:11:08.335Z,98455.13
2023-04-25T23:13:37.681Z,98462.03
2023-04-25T23:16:07.484Z,98451.75
2023-04-25T23:18:36.808Z,98451.41
2023-04-25T23:21:07.814Z,98451.78
2023-04-25T23:23:36.690Z,98453.88
2023-04-25T23:26:09.892Z,98450.78
2023-04-25T23:28:41.463Z,98445.72
2023-04-25T23:31:11.909Z,98443.41
2023-04-25T23:33:40.714Z,98445.91
2023-04-25T23:36:09.459Z,98441.69
2023-04-25T23:38:38.425Z,98445.19
2023-04-25T23:41:07.054Z,98432.19
2023-04-25T23:43:36.997Z,98431.59
2023-04-25T23:46:05.606Z,98432.44
2023-04-25T23:48:34.145Z,98425.72
2023-04-25T23:51:02.535Z,98423.19
2023-04-25T23:53:31.228Z,98424.97
2023-04-25T23:55:59.583Z,98416.44
2023-04-25T23:58:29.588Z,98409.53
